Terminal Aerodrome Forecast
Issued by NWS Memphis, TN

Home | Current Version | Previous Version | Text Only | Print | Product List | Glossary On
Versions: 1 2 3 4 5 6 7 8 9 10 11 12 13 14 15
000
FTUS44 KMEG 012320
TAFJBR
TAF
KJBR 012320Z 0200/0224 32004KT P6SM SCT022 BKN030 BKN070
     FM020300 18010KT P6SM SCT035 OVC250
     FM020800 20014G22KT P6SM FEW010 BKN030 BKN100
     FM021700 20015G28KT P6SM BKN035 OVC100=

USA.gov is the U.S. government's official web portal to all federal, state and local government web resources and services.